sensor_id;sensor_type;location;lat;lon;timestamp;P1;durP1;ratioP1;P2;durP2;ratioP2
54388;SDS011;40975;50.390;8.640;2022-10-16T00:00:54;1.05;;;0.70;;
54388;SDS011;40975;50.390;8.640;2022-10-16T00:03:19;1.13;;;0.77;;
54388;SDS011;40975;50.390;8.640;2022-10-16T00:05:44;1.02;;;0.70;;
54388;SDS011;40975;50.390;8.640;2022-10-16T00:08:10;0.63;;;0.63;;
54388;SDS011;40975;50.390;8.640;2022-10-16T00:10:37;1.58;;;0.57;;
54388;SDS011;40975;50.390;8.640;2022-10-16T00:13:03;1.25;;;0.70;;
54388;SDS011;40975;50.390;8.640;2022-10-16T00:15:29;0.65;;;0.65;;
54388;SDS011;40975;50.390;8.640;2022-10-16T00:17:55;3.08;;;0.95;;
54388;SDS011;40975;50.390;8.640;2022-10-16T00:20:20;0.57;;;0.57;;
54388;SDS011;40975;50.390;8.640;2022-10-16T00:22:46;0.77;;;0.68;;
54388;SDS011;40975;50.390;8.640;2022-10-16T00:25:11;0.80;;;0.70;;
54388;SDS011;40975;50.390;8.640;2022-10-16T00:27:36;0.93;;;0.70;;
54388;SDS011;40975;50.390;8.640;2022-10-16T00:30:02;0.50;;;0.50;;
54388;SDS011;40975;50.390;8.640;2022-10-16T00:32:28;6.55;;;0.70;;
54388;SDS011;40975;50.390;8.640;2022-10-16T00:34:53;3.25;;;0.70;;
54388;SDS011;40975;50.390;8.640;2022-10-16T00:37:20;0.70;;;0.70;;
54388;SDS011;40975;50.390;8.640;2022-10-16T00:39:45;0.55;;;0.55;;
54388;SDS011;40975;50.390;8.640;2022-10-16T00:42:15;2.13;;;0.65;;
54388;SDS011;40975;50.390;8.640;2022-10-16T00:44:43;2.88;;;0.70;;
54388;SDS011;40975;50.390;8.640;2022-10-16T00:47:13;1.77;;;0.70;;
54388;SDS011;40975;50.390;8.640;2022-10-16T00:49:43;2.38;;;1.00;;
54388;SDS011;40975;50.390;8.640;2022-10-16T00:52:09;1.42;;;0.70;;
54388;SDS011;40975;50.390;8.640;2022-10-16T00:54:35;2.83;;;1.00;;
54388;SDS011;40975;50.390;8.640;2022-10-16T00:57:01;2.55;;;0.75;;
54388;SDS011;40975;50.390;8.640;2022-10-16T00:59:31;1.38;;;0.90;;
54388;SDS011;40975;50.390;8.640;2022-10-16T01:01:59;5.05;;;0.77;;
54388;SDS011;40975;50.390;8.640;2022-10-16T01:04:25;0.85;;;0.68;;
54388;SDS011;40975;50.390;8.640;2022-10-16T01:06:56;1.20;;;0.90;;
54388;SDS011;40975;50.390;8.640;2022-10-16T01:09:37;3.08;;;0.80;;
54388;SDS011;40975;50.390;8.640;2022-10-16T01:12:14;1.52;;;1.00;;
54388;SDS011;40975;50.390;8.640;2022-10-16T01:14:56;5.35;;;1.30;;
54388;SDS011;40975;50.390;8.640;2022-10-16T01:20:07;0.90;;;0.85;;
54388;SDS011;40975;50.390;8.640;2022-10-16T01:22:38;4.88;;;0.90;;
54388;SDS011;40975;50.390;8.640;2022-10-16T01:25:16;0.88;;;0.82;;
54388;SDS011;40975;50.390;8.640;2022-10-16T01:27:52;1.00;;;0.90;;
54388;SDS011;40975;50.390;8.640;2022-10-16T01:30:21;3.80;;;1.00;;
54388;SDS011;40975;50.390;8.640;2022-10-16T01:32:55;2.55;;;0.95;;
54388;SDS011;40975;50.390;8.640;2022-10-16T01:35:36;3.35;;;0.70;;
54388;SDS011;40975;50.390;8.640;2022-10-16T01:38:08;1.60;;;0.80;;
54388;SDS011;40975;50.390;8.640;2022-10-16T01:40:39;3.85;;;0.80;;
54388;SDS011;40975;50.390;8.640;2022-10-16T01:43:17;3.40;;;0.88;;
54388;SDS011;40975;50.390;8.640;2022-10-16T01:45:46;0.77;;;0.77;;
54388;SDS011;40975;50.390;8.640;2022-10-16T01:48:13;1.25;;;0.88;;
54388;SDS011;40975;50.390;8.640;2022-10-16T01:50:42;2.45;;;1.00;;
54388;SDS011;40975;50.390;8.640;2022-10-16T01:53:12;1.30;;;1.10;;
54388;SDS011;40975;50.390;8.640;2022-10-16T01:55:40;0.88;;;0.85;;
54388;SDS011;40975;50.390;8.640;2022-10-16T01:58:10;0.80;;;0.80;;
54388;SDS011;40975;50.390;8.640;2022-10-16T02:00:38;1.00;;;0.90;;
54388;SDS011;40975;50.390;8.640;2022-10-16T02:03:05;3.20;;;1.10;;
54388;SDS011;40975;50.390;8.640;2022-10-16T02:05:34;1.88;;;0.90;;
54388;SDS011;40975;50.390;8.640;2022-10-16T02:08:06;2.28;;;1.17;;
54388;SDS011;40975;50.390;8.640;2022-10-16T02:10:31;1.10;;;1.00;;
54388;SDS011;40975;50.390;8.640;2022-10-16T02:13:01;2.00;;;1.08;;
54388;SDS011;40975;50.390;8.640;2022-10-16T02:15:31;1.60;;;0.93;;
54388;SDS011;40975;50.390;8.640;2022-10-16T02:17:56;1.60;;;0.80;;
54388;SDS011;40975;50.390;8.640;2022-10-16T02:20:23;1.27;;;1.10;;
54388;SDS011;40975;50.390;8.640;2022-10-16T02:22:52;4.07;;;1.25;;
54388;SDS011;40975;50.390;8.640;2022-10-16T02:25:36;1.55;;;1.00;;
54388;SDS011;40975;50.390;8.640;2022-10-16T02:28:13;4.47;;;1.25;;
54388;SDS011;40975;50.390;8.640;2022-10-16T02:30:43;1.35;;;1.05;;
54388;SDS011;40975;50.390;8.640;2022-10-16T02:33:13;3.53;;;1.13;;
54388;SDS011;40975;50.390;8.640;2022-10-16T02:35:41;0.77;;;0.77;;
54388;SDS011;40975;50.390;8.640;2022-10-16T02:38:08;1.48;;;1.02;;
54388;SDS011;40975;50.390;8.640;2022-10-16T02:40:34;3.17;;;1.20;;
54388;SDS011;40975;50.390;8.640;2022-10-16T02:43:00;5.47;;;0.95;;
54388;SDS011;40975;50.390;8.640;2022-10-16T02:45:29;3.53;;;1.08;;
54388;SDS011;40975;50.390;8.640;2022-10-16T02:47:54;2.70;;;1.00;;
54388;SDS011;40975;50.390;8.640;2022-10-16T02:50:19;1.10;;;0.90;;
54388;SDS011;40975;50.390;8.640;2022-10-16T02:52:45;2.50;;;1.10;;
54388;SDS011;40975;50.390;8.640;2022-10-16T02:55:10;1.27;;;1.17;;
54388;SDS011;40975;50.390;8.640;2022-10-16T02:57:36;2.63;;;1.05;;
54388;SDS011;40975;50.390;8.640;2022-10-16T03:00:03;2.42;;;1.35;;
54388;SDS011;40975;50.390;8.640;2022-10-16T03:02:32;2.08;;;0.85;;
54388;SDS011;40975;50.390;8.640;2022-10-16T03:04:57;4.53;;;1.70;;
54388;SDS011;40975;50.390;8.640;2022-10-16T03:07:22;7.20;;;1.38;;
54388;SDS011;40975;50.390;8.640;2022-10-16T03:09:48;2.25;;;1.20;;
54388;SDS011;40975;50.390;8.640;2022-10-16T03:12:13;3.25;;;1.20;;
54388;SDS011;40975;50.390;8.640;2022-10-16T03:14:38;4.07;;;1.00;;
54388;SDS011;40975;50.390;8.640;2022-10-16T03:17:04;3.50;;;1.20;;
54388;SDS011;40975;50.390;8.640;2022-10-16T03:19:30;1.30;;;1.20;;
54388;SDS011;40975;50.390;8.640;2022-10-16T03:21:55;1.80;;;1.40;;
54388;SDS011;40975;50.390;8.640;2022-10-16T03:24:20;1.30;;;1.20;;
54388;SDS011;40975;50.390;8.640;2022-10-16T03:26:46;1.50;;;1.35;;
54388;SDS011;40975;50.390;8.640;2022-10-16T03:29:11;1.88;;;1.30;;
54388;SDS011;40975;50.390;8.640;2022-10-16T03:31:36;2.42;;;1.42;;
54388;SDS011;40975;50.390;8.640;2022-10-16T03:34:02;4.35;;;1.10;;
54388;SDS011;40975;50.390;8.640;2022-10-16T03:36:27;3.45;;;1.30;;
54388;SDS011;40975;50.390;8.640;2022-10-16T03:38:52;2.80;;;1.33;;
54388;SDS011;40975;50.390;8.640;2022-10-16T03:41:18;1.77;;;1.17;;
54388;SDS011;40975;50.390;8.640;2022-10-16T03:43:43;1.00;;;1.00;;
54388;SDS011;40975;50.390;8.640;2022-10-16T03:46:09;1.00;;;1.00;;
54388;SDS011;40975;50.390;8.640;2022-10-16T03:48:34;0.98;;;0.90;;
54388;SDS011;40975;50.390;8.640;2022-10-16T03:50:59;3.83;;;0.80;;
54388;SDS011;40975;50.390;8.640;2022-10-16T03:53:25;0.40;;;0.40;;
54388;SDS011;40975;50.390;8.640;2022-10-16T03:55:50;0.90;;;0.50;;
54388;SDS011;40975;50.390;8.640;2022-10-16T03:58:15;2.53;;;0.73;;
54388;SDS011;40975;50.390;8.640;2022-10-16T04:00:41;0.77;;;0.63;;
54388;SDS011;40975;50.390;8.640;2022-10-16T04:03:07;0.73;;;0.70;;
54388;SDS011;40975;50.390;8.640;2022-10-16T04:05:33;1.00;;;0.57;;
54388;SDS011;40975;50.390;8.640;2022-10-16T04:07:59;1.52;;;0.70;;
54388;SDS011;40975;50.390;8.640;2022-10-16T04:10:24;1.55;;;0.75;;
54388;SDS011;40975;50.390;8.640;2022-10-16T04:12:49;2.28;;;0.70;;
54388;SDS011;40975;50.390;8.640;2022-10-16T04:15:15;2.15;;;0.65;;
54388;SDS011;40975;50.390;8.640;2022-10-16T04:17:40;1.08;;;0.55;;
54388;SDS011;40975;50.390;8.640;2022-10-16T04:20:06;2.22;;;0.68;;
54388;SDS011;40975;50.390;8.640;2022-10-16T04:22:31;1.92;;;0.70;;
54388;SDS011;40975;50.390;8.640;2022-10-16T04:24:56;0.60;;;0.60;;
54388;SDS011;40975;50.390;8.640;2022-10-16T04:27:22;1.48;;;0.57;;
54388;SDS011;40975;50.390;8.640;2022-10-16T04:29:47;0.35;;;0.35;;
54388;SDS011;40975;50.390;8.640;2022-10-16T04:32:12;0.60;;;0.45;;
54388;SDS011;40975;50.390;8.640;2022-10-16T04:34:38;0.60;;;0.60;;
54388;SDS011;40975;50.390;8.640;2022-10-16T04:37:04;0.90;;;0.60;;
54388;SDS011;40975;50.390;8.640;2022-10-16T04:39:30;0.68;;;0.52;;
54388;SDS011;40975;50.390;8.640;2022-10-16T04:41:55;0.88;;;0.88;;
54388;SDS011;40975;50.390;8.640;2022-10-16T04:44:21;0.75;;;0.60;;
54388;SDS011;40975;50.390;8.640;2022-10-16T04:46:47;1.40;;;0.45;;
54388;SDS011;40975;50.390;8.640;2022-10-16T04:49:12;0.60;;;0.60;;
54388;SDS011;40975;50.390;8.640;2022-10-16T04:51:38;3.72;;;0.60;;
54388;SDS011;40975;50.390;8.640;2022-10-16T04:54:03;0.68;;;0.47;;
54388;SDS011;40975;50.390;8.640;2022-10-16T04:56:28;2.10;;;0.70;;
54388;SDS011;40975;50.390;8.640;2022-10-16T04:58:54;2.00;;;0.60;;
54388;SDS011;40975;50.390;8.640;2022-10-16T05:01:19;0.40;;;0.40;;
54388;SDS011;40975;50.390;8.640;2022-10-16T05:03:44;0.98;;;0.45;;
54388;SDS011;40975;50.390;8.640;2022-10-16T05:06:10;1.92;;;0.65;;
54388;SDS011;40975;50.390;8.640;2022-10-16T05:08:36;0.80;;;0.70;;
54388;SDS011;40975;50.390;8.640;2022-10-16T05:11:01;1.27;;;0.60;;
54388;SDS011;40975;50.390;8.640;2022-10-16T05:13:27;0.60;;;0.60;;
54388;SDS011;40975;50.390;8.640;2022-10-16T05:15:52;1.20;;;0.63;;
54388;SDS011;40975;50.390;8.640;2022-10-16T05:18:18;0.73;;;0.70;;
54388;SDS011;40975;50.390;8.640;2022-10-16T05:20:43;1.42;;;1.33;;
54388;SDS011;40975;50.390;8.640;2022-10-16T05:23:08;0.60;;;0.60;;
54388;SDS011;40975;50.390;8.640;2022-10-16T05:25:35;0.68;;;0.68;;
54388;SDS011;40975;50.390;8.640;2022-10-16T05:28:01;0.63;;;0.63;;
54388;SDS011;40975;50.390;8.640;2022-10-16T05:30:27;0.95;;;0.90;;
54388;SDS011;40975;50.390;8.640;2022-10-16T05:32:52;1.25;;;0.73;;
54388;SDS011;40975;50.390;8.640;2022-10-16T05:35:18;1.10;;;0.80;;
54388;SDS011;40975;50.390;8.640;2022-10-16T05:37:44;1.10;;;0.80;;
54388;SDS011;40975;50.390;8.640;2022-10-16T05:40:10;1.95;;;0.80;;
54388;SDS011;40975;50.390;8.640;2022-10-16T05:42:36;1.00;;;0.88;;
54388;SDS011;40975;50.390;8.640;2022-10-16T05:45:02;0.85;;;0.85;;
54388;SDS011;40975;50.390;8.640;2022-10-16T05:47:29;2.33;;;0.90;;
54388;SDS011;40975;50.390;8.640;2022-10-16T05:49:54;1.95;;;0.80;;
54388;SDS011;40975;50.390;8.640;2022-10-16T05:52:20;0.70;;;0.70;;
54388;SDS011;40975;50.390;8.640;2022-10-16T05:54:45;1.17;;;1.08;;
54388;SDS011;40975;50.390;8.640;2022-10-16T05:57:11;1.48;;;0.90;;
54388;SDS011;40975;50.390;8.640;2022-10-16T05:59:36;3.05;;;0.90;;
54388;SDS011;40975;50.390;8.640;2022-10-16T06:02:01;0.70;;;0.70;;
54388;SDS011;40975;50.390;8.640;2022-10-16T06:04:27;1.58;;;1.00;;
54388;SDS011;40975;50.390;8.640;2022-10-16T06:06:52;1.13;;;0.93;;
54388;SDS011;40975;50.390;8.640;2022-10-16T06:09:17;4.03;;;1.10;;
54388;SDS011;40975;50.390;8.640;2022-10-16T06:11:43;1.92;;;1.38;;
54388;SDS011;40975;50.390;8.640;2022-10-16T06:14:08;3.30;;;1.30;;
54388;SDS011;40975;50.390;8.640;2022-10-16T06:16:37;1.13;;;1.02;;
54388;SDS011;40975;50.390;8.640;2022-10-16T06:19:02;1.38;;;1.27;;
54388;SDS011;40975;50.390;8.640;2022-10-16T06:21:31;1.73;;;0.95;;
54388;SDS011;40975;50.390;8.640;2022-10-16T06:23:57;1.00;;;0.88;;
54388;SDS011;40975;50.390;8.640;2022-10-16T06:26:24;0.93;;;0.70;;
54388;SDS011;40975;50.390;8.640;2022-10-16T06:28:51;1.08;;;0.90;;
54388;SDS011;40975;50.390;8.640;2022-10-16T06:31:19;0.93;;;0.93;;
54388;SDS011;40975;50.390;8.640;2022-10-16T06:33:45;2.63;;;0.80;;
54388;SDS011;40975;50.390;8.640;2022-10-16T06:36:13;2.20;;;1.20;;
54388;SDS011;40975;50.390;8.640;2022-10-16T06:38:40;1.85;;;1.60;;
54388;SDS011;40975;50.390;8.640;2022-10-16T06:41:06;1.27;;;1.10;;
54388;SDS011;40975;50.390;8.640;2022-10-16T06:43:33;3.25;;;1.20;;
54388;SDS011;40975;50.390;8.640;2022-10-16T06:46:00;1.75;;;1.40;;
54388;SDS011;40975;50.390;8.640;2022-10-16T06:48:26;2.17;;;1.20;;
54388;SDS011;40975;50.390;8.640;2022-10-16T06:50:56;2.35;;;1.15;;
54388;SDS011;40975;50.390;8.640;2022-10-16T06:53:22;2.58;;;1.70;;
54388;SDS011;40975;50.390;8.640;2022-10-16T06:55:48;1.48;;;1.38;;
54388;SDS011;40975;50.390;8.640;2022-10-16T06:58:13;1.20;;;1.08;;
54388;SDS011;40975;50.390;8.640;2022-10-16T07:00:39;4.03;;;1.65;;
54388;SDS011;40975;50.390;8.640;2022-10-16T07:03:04;2.15;;;1.52;;
54388;SDS011;40975;50.390;8.640;2022-10-16T07:05:29;1.83;;;1.40;;
54388;SDS011;40975;50.390;8.640;2022-10-16T07:07:55;4.85;;;1.60;;
54388;SDS011;40975;50.390;8.640;2022-10-16T07:10:20;2.17;;;1.58;;
54388;SDS011;40975;50.390;8.640;2022-10-16T07:12:49;1.30;;;1.20;;
54388;SDS011;40975;50.390;8.640;2022-10-16T07:15:14;2.10;;;1.90;;
54388;SDS011;40975;50.390;8.640;2022-10-16T07:17:39;2.53;;;1.90;;
54388;SDS011;40975;50.390;8.640;2022-10-16T07:20:05;3.33;;;2.03;;
54388;SDS011;40975;50.390;8.640;2022-10-16T07:22:31;4.40;;;2.40;;
54388;SDS011;40975;50.390;8.640;2022-10-16T07:24:56;4.45;;;2.30;;
54388;SDS011;40975;50.390;8.640;2022-10-16T07:27:22;2.38;;;2.17;;
54388;SDS011;40975;50.390;8.640;2022-10-16T07:29:48;3.22;;;2.88;;
54388;SDS011;40975;50.390;8.640;2022-10-16T07:32:14;4.05;;;3.15;;
54388;SDS011;40975;50.390;8.640;2022-10-16T07:34:39;3.58;;;2.65;;
54388;SDS011;40975;50.390;8.640;2022-10-16T07:37:04;4.68;;;2.85;;
54388;SDS011;40975;50.390;8.640;2022-10-16T07:39:30;4.32;;;2.25;;
54388;SDS011;40975;50.390;8.640;2022-10-16T07:41:55;2.38;;;2.10;;
54388;SDS011;40975;50.390;8.640;2022-10-16T07:44:21;3.80;;;2.15;;
54388;SDS011;40975;50.390;8.640;2022-10-16T07:46:46;2.15;;;1.95;;
54388;SDS011;40975;50.390;8.640;2022-10-16T07:49:11;1.88;;;1.73;;
54388;SDS011;40975;50.390;8.640;2022-10-16T07:51:37;2.50;;;2.08;;
54388;SDS011;40975;50.390;8.640;2022-10-16T07:54:03;2.00;;;1.80;;
54388;SDS011;40975;50.390;8.640;2022-10-16T07:56:30;2.63;;;1.92;;
54388;SDS011;40975;50.390;8.640;2022-10-16T07:58:55;2.53;;;1.85;;
54388;SDS011;40975;50.390;8.640;2022-10-16T08:01:21;2.92;;;1.88;;
54388;SDS011;40975;50.390;8.640;2022-10-16T08:03:47;3.15;;;2.33;;
54388;SDS011;40975;50.390;8.640;2022-10-16T08:06:14;1.98;;;1.77;;
54388;SDS011;40975;50.390;8.640;2022-10-16T08:08:40;2.20;;;1.70;;
54388;SDS011;40975;50.390;8.640;2022-10-16T08:11:06;1.75;;;1.45;;
54388;SDS011;40975;50.390;8.640;2022-10-16T08:13:32;2.38;;;1.98;;
54388;SDS011;40975;50.390;8.640;2022-10-16T08:15:57;2.42;;;1.42;;
54388;SDS011;40975;50.390;8.640;2022-10-16T08:18:23;2.50;;;1.83;;
54388;SDS011;40975;50.390;8.640;2022-10-16T08:20:54;2.22;;;1.60;;
54388;SDS011;40975;50.390;8.640;2022-10-16T08:23:20;1.77;;;1.48;;
54388;SDS011;40975;50.390;8.640;2022-10-16T08:25:45;2.40;;;1.70;;
54388;SDS011;40975;50.390;8.640;2022-10-16T08:28:11;2.88;;;1.95;;
54388;SDS011;40975;50.390;8.640;2022-10-16T08:30:36;3.58;;;1.80;;
54388;SDS011;40975;50.390;8.640;2022-10-16T08:33:02;3.20;;;2.30;;
54388;SDS011;40975;50.390;8.640;2022-10-16T08:35:28;3.78;;;2.08;;
54388;SDS011;40975;50.390;8.640;2022-10-16T08:37:54;1.88;;;1.65;;
54388;SDS011;40975;50.390;8.640;2022-10-16T08:40:20;3.42;;;2.00;;
54388;SDS011;40975;50.390;8.640;2022-10-16T08:48:20;5.63;;;2.78;;
54388;SDS011;40975;50.390;8.640;2022-10-16T08:50:54;4.10;;;2.67;;
54388;SDS011;40975;50.390;8.640;2022-10-16T08:56:20;2.88;;;2.58;;
54388;SDS011;40975;50.390;8.640;2022-10-16T08:58:46;4.47;;;2.50;;
54388;SDS011;40975;50.390;8.640;2022-10-16T09:01:13;2.85;;;2.55;;
54388;SDS011;40975;50.390;8.640;2022-10-16T09:03:54;5.47;;;2.55;;
54388;SDS011;40975;50.390;8.640;2022-10-16T09:09:56;2.30;;;1.85;;
54388;SDS011;40975;50.390;8.640;2022-10-16T09:12:31;2.33;;;1.58;;
54388;SDS011;40975;50.390;8.640;2022-10-16T09:15:12;4.10;;;1.38;;
54388;SDS011;40975;50.390;8.640;2022-10-16T09:18:05;2.25;;;1.50;;
54388;SDS011;40975;50.390;8.640;2022-10-16T09:20:53;3.80;;;1.50;;
54388;SDS011;40975;50.390;8.640;2022-10-16T09:23:33;1.73;;;1.08;;
54388;SDS011;40975;50.390;8.640;2022-10-16T09:26:00;1.95;;;1.10;;
54388;SDS011;40975;50.390;8.640;2022-10-16T09:28:27;1.20;;;0.98;;
54388;SDS011;40975;50.390;8.640;2022-10-16T09:30:52;2.20;;;1.00;;
54388;SDS011;40975;50.390;8.640;2022-10-16T09:33:19;1.75;;;1.38;;
54388;SDS011;40975;50.390;8.640;2022-10-16T09:35:51;1.20;;;1.10;;
54388;SDS011;40975;50.390;8.640;2022-10-16T09:38:29;1.45;;;1.25;;
54388;SDS011;40975;50.390;8.640;2022-10-16T09:40:56;3.55;;;2.05;;
54388;SDS011;40975;50.390;8.640;2022-10-16T09:43:34;1.83;;;1.70;;
54388;SDS011;40975;50.390;8.640;2022-10-16T09:46:06;0.90;;;0.90;;
54388;SDS011;40975;50.390;8.640;2022-10-16T09:51:02;1.60;;;1.10;;
54388;SDS011;40975;50.390;8.640;2022-10-16T09:56:10;1.33;;;1.08;;
54388;SDS011;40975;50.390;8.640;2022-10-16T09:58:41;1.00;;;0.90;;
54388;SDS011;40975;50.390;8.640;2022-10-16T10:01:11;1.23;;;0.73;;
54388;SDS011;40975;50.390;8.640;2022-10-16T10:03:39;1.77;;;1.02;;
54388;SDS011;40975;50.390;8.640;2022-10-16T10:06:15;1.58;;;0.70;;
54388;SDS011;40975;50.390;8.640;2022-10-16T10:09:04;0.98;;;0.88;;
54388;SDS011;40975;50.390;8.640;2022-10-16T10:11:46;2.47;;;0.77;;
54388;SDS011;40975;50.390;8.640;2022-10-16T10:14:38;0.98;;;0.80;;
54388;SDS011;40975;50.390;8.640;2022-10-16T10:20:13;1.10;;;0.90;;
54388;SDS011;40975;50.390;8.640;2022-10-16T10:30:15;3.45;;;1.10;;
54388;SDS011;40975;50.390;8.640;2022-10-16T10:36:00;4.57;;;2.92;;
54388;SDS011;40975;50.390;8.640;2022-10-16T10:44:50;0.60;;;0.50;;
54388;SDS011;40975;50.390;8.640;2022-10-16T10:47:27;1.67;;;0.60;;
54388;SDS011;40975;50.390;8.640;2022-10-16T10:50:22;0.68;;;0.65;;
54388;SDS011;40975;50.390;8.640;2022-10-16T10:52:59;0.50;;;0.50;;
54388;SDS011;40975;50.390;8.640;2022-10-16T11:00:58;1.05;;;0.50;;
54388;SDS011;40975;50.390;8.640;2022-10-16T11:06:22;0.85;;;0.60;;
54388;SDS011;40975;50.390;8.640;2022-10-16T11:11:49;0.20;;;0.20;;
54388;SDS011;40975;50.390;8.640;2022-10-16T11:14:21;2.22;;;0.50;;
54388;SDS011;40975;50.390;8.640;2022-10-16T11:16:56;0.30;;;0.30;;
54388;SDS011;40975;50.390;8.640;2022-10-16T11:19:37;0.30;;;0.30;;
54388;SDS011;40975;50.390;8.640;2022-10-16T11:24:37;0.40;;;0.40;;
54388;SDS011;40975;50.390;8.640;2022-10-16T11:27:08;0.60;;;0.50;;
54388;SDS011;40975;50.390;8.640;2022-10-16T11:29:43;1.50;;;1.27;;
54388;SDS011;40975;50.390;8.640;2022-10-16T11:33:02;1.70;;;1.20;;
54388;SDS011;40975;50.390;8.640;2022-10-16T11:35:12;0.80;;;0.52;;
54388;SDS011;40975;50.390;8.640;2022-10-16T11:37:43;0.85;;;0.73;;
54388;SDS011;40975;50.390;8.640;2022-10-16T11:43:27;0.93;;;0.30;;
54388;SDS011;40975;50.390;8.640;2022-10-16T11:45:58;2.30;;;0.40;;
54388;SDS011;40975;50.390;8.640;2022-10-16T11:48:36;0.38;;;0.38;;
54388;SDS011;40975;50.390;8.640;2022-10-16T11:51:19;0.50;;;0.50;;
54388;SDS011;40975;50.390;8.640;2022-10-16T11:53:57;1.20;;;0.57;;
54388;SDS011;40975;50.390;8.640;2022-10-16T11:56:27;0.40;;;0.40;;
54388;SDS011;40975;50.390;8.640;2022-10-16T11:58:56;0.47;;;0.47;;
54388;SDS011;40975;50.390;8.640;2022-10-16T12:01:46;0.52;;;0.40;;
54388;SDS011;40975;50.390;8.640;2022-10-16T12:04:46;1.33;;;0.50;;
54388;SDS011;40975;50.390;8.640;2022-10-16T12:07:18;0.60;;;0.50;;
54388;SDS011;40975;50.390;8.640;2022-10-16T12:09:49;0.55;;;0.55;;
54388;SDS011;40975;50.390;8.640;2022-10-16T12:15:00;1.30;;;0.60;;
54388;SDS011;40975;50.390;8.640;2022-10-16T12:17:37;0.50;;;0.50;;
54388;SDS011;40975;50.390;8.640;2022-10-16T12:22:40;0.52;;;0.38;;
54388;SDS011;40975;50.390;8.640;2022-10-16T12:28:20;0.90;;;0.60;;
54388;SDS011;40975;50.390;8.640;2022-10-16T12:31:20;1.23;;;0.40;;
54388;SDS011;40975;50.390;8.640;2022-10-16T12:33:56;0.50;;;0.50;;
54388;SDS011;40975;50.390;8.640;2022-10-16T12:36:42;0.75;;;0.40;;
54388;SDS011;40975;50.390;8.640;2022-10-16T12:39:16;0.50;;;0.50;;
54388;SDS011;40975;50.390;8.640;2022-10-16T12:41:46;0.38;;;0.38;;
54388;SDS011;40975;50.390;8.640;2022-10-16T12:44:23;1.77;;;0.40;;
54388;SDS011;40975;50.390;8.640;2022-10-16T12:46:49;0.70;;;0.50;;
54388;SDS011;40975;50.390;8.640;2022-10-16T12:49:21;0.60;;;0.60;;
54388;SDS011;40975;50.390;8.640;2022-10-16T12:51:52;1.17;;;0.95;;
54388;SDS011;40975;50.390;8.640;2022-10-16T12:57:26;2.00;;;1.00;;
54388;SDS011;40975;50.390;8.640;2022-10-16T13:00:20;1.73;;;1.13;;
54388;SDS011;40975;50.390;8.640;2022-10-16T13:06:07;1.13;;;1.00;;
54388;SDS011;40975;50.390;8.640;2022-10-16T13:08:46;1.98;;;1.27;;
54388;SDS011;40975;50.390;8.640;2022-10-16T13:11:31;1.27;;;1.10;;
54388;SDS011;40975;50.390;8.640;2022-10-16T13:14:28;2.65;;;0.80;;
54388;SDS011;40975;50.390;8.640;2022-10-16T13:19:49;1.02;;;0.70;;
54388;SDS011;40975;50.390;8.640;2022-10-16T13:22:22;0.73;;;0.73;;
54388;SDS011;40975;50.390;8.640;2022-10-16T13:30:23;1.00;;;0.80;;
54388;SDS011;40975;50.390;8.640;2022-10-16T13:32:53;2.88;;;1.05;;
54388;SDS011;40975;50.390;8.640;2022-10-16T13:35:32;2.80;;;1.23;;
54388;SDS011;40975;50.390;8.640;2022-10-16T13:38:03;1.83;;;0.70;;
54388;SDS011;40975;50.390;8.640;2022-10-16T13:40:49;0.82;;;0.82;;
54388;SDS011;40975;50.390;8.640;2022-10-16T13:43:17;1.00;;;0.90;;
54388;SDS011;40975;50.390;8.640;2022-10-16T13:45:58;1.17;;;0.80;;
54388;SDS011;40975;50.390;8.640;2022-10-16T13:48:28;1.30;;;0.68;;
54388;SDS011;40975;50.390;8.640;2022-10-16T13:50:58;0.90;;;0.70;;
54388;SDS011;40975;50.390;8.640;2022-10-16T13:53:32;1.95;;;0.90;;
54388;SDS011;40975;50.390;8.640;2022-10-16T13:55:59;1.33;;;0.80;;
54388;SDS011;40975;50.390;8.640;2022-10-16T13:58:27;1.05;;;0.70;;
54388;SDS011;40975;50.390;8.640;2022-10-16T14:00:54;0.93;;;0.73;;
54388;SDS011;40975;50.390;8.640;2022-10-16T14:03:21;1.10;;;0.65;;
54388;SDS011;40975;50.390;8.640;2022-10-16T14:05:54;0.90;;;0.70;;
54388;SDS011;40975;50.390;8.640;2022-10-16T14:08:22;1.55;;;1.00;;
54388;SDS011;40975;50.390;8.640;2022-10-16T14:10:50;0.65;;;0.65;;
54388;SDS011;40975;50.390;8.640;2022-10-16T14:13:18;3.88;;;1.40;;
54388;SDS011;40975;50.390;8.640;2022-10-16T14:15:48;0.85;;;0.85;;
54388;SDS011;40975;50.390;8.640;2022-10-16T14:18:18;1.17;;;0.63;;
54388;SDS011;40975;50.390;8.640;2022-10-16T14:20:46;0.80;;;0.80;;
54388;SDS011;40975;50.390;8.640;2022-10-16T14:25:48;0.70;;;0.70;;
54388;SDS011;40975;50.390;8.640;2022-10-16T14:28:15;1.90;;;1.00;;
54388;SDS011;40975;50.390;8.640;2022-10-16T14:33:48;1.95;;;0.70;;
54388;SDS011;40975;50.390;8.640;2022-10-16T14:36:14;1.08;;;0.90;;
54388;SDS011;40975;50.390;8.640;2022-10-16T14:38:43;1.10;;;1.00;;
54388;SDS011;40975;50.390;8.640;2022-10-16T14:41:41;3.25;;;1.10;;
54388;SDS011;40975;50.390;8.640;2022-10-16T14:44:10;1.67;;;1.00;;
54388;SDS011;40975;50.390;8.640;2022-10-16T14:46:38;1.33;;;1.10;;
54388;SDS011;40975;50.390;8.640;2022-10-16T14:49:13;1.08;;;0.88;;
54388;SDS011;40975;50.390;8.640;2022-10-16T14:51:42;1.88;;;0.80;;
54388;SDS011;40975;50.390;8.640;2022-10-16T14:54:10;3.63;;;1.05;;
54388;SDS011;40975;50.390;8.640;2022-10-16T14:56:42;2.63;;;1.08;;
54388;SDS011;40975;50.390;8.640;2022-10-16T14:59:15;1.35;;;1.25;;
54388;SDS011;40975;50.390;8.640;2022-10-16T15:01:44;1.10;;;1.00;;
54388;SDS011;40975;50.390;8.640;2022-10-16T15:04:10;1.13;;;1.02;;
54388;SDS011;40975;50.390;8.640;2022-10-16T15:06:37;0.85;;;0.85;;
54388;SDS011;40975;50.390;8.640;2022-10-16T15:09:02;1.88;;;1.27;;
54388;SDS011;40975;50.390;8.640;2022-10-16T15:11:28;1.40;;;1.30;;
54388;SDS011;40975;50.390;8.640;2022-10-16T15:13:53;1.50;;;1.20;;
54388;SDS011;40975;50.390;8.640;2022-10-16T15:16:18;2.17;;;1.20;;
54388;SDS011;40975;50.390;8.640;2022-10-16T15:18:44;1.23;;;1.00;;
54388;SDS011;40975;50.390;8.640;2022-10-16T15:21:17;2.95;;;1.20;;
54388;SDS011;40975;50.390;8.640;2022-10-16T15:23:53;1.15;;;0.88;;
54388;SDS011;40975;50.390;8.640;2022-10-16T15:26:19;1.08;;;1.00;;
54388;SDS011;40975;50.390;8.640;2022-10-16T15:28:44;3.63;;;1.17;;
54388;SDS011;40975;50.390;8.640;2022-10-16T15:31:10;2.45;;;1.17;;
54388;SDS011;40975;50.390;8.640;2022-10-16T15:33:35;1.27;;;1.17;;
54388;SDS011;40975;50.390;8.640;2022-10-16T15:36:01;1.20;;;0.93;;
54388;SDS011;40975;50.390;8.640;2022-10-16T15:38:27;1.08;;;0.98;;
54388;SDS011;40975;50.390;8.640;2022-10-16T15:40:53;1.45;;;1.35;;
54388;SDS011;40975;50.390;8.640;2022-10-16T15:43:19;3.00;;;1.17;;
54388;SDS011;40975;50.390;8.640;2022-10-16T15:45:47;1.20;;;1.10;;
54388;SDS011;40975;50.390;8.640;2022-10-16T15:48:24;1.70;;;1.20;;
54388;SDS011;40975;50.390;8.640;2022-10-16T15:50:50;1.85;;;1.00;;
54388;SDS011;40975;50.390;8.640;2022-10-16T15:53:15;2.50;;;1.73;;
54388;SDS011;40975;50.390;8.640;2022-10-16T15:55:40;1.88;;;1.48;;
54388;SDS011;40975;50.390;8.640;2022-10-16T15:58:06;2.88;;;2.15;;
54388;SDS011;40975;50.390;8.640;2022-10-16T16:00:31;2.70;;;1.90;;
54388;SDS011;40975;50.390;8.640;2022-10-16T16:02:57;2.22;;;1.40;;
54388;SDS011;40975;50.390;8.640;2022-10-16T16:05:22;3.90;;;1.40;;
54388;SDS011;40975;50.390;8.640;2022-10-16T16:07:48;1.75;;;1.40;;
54388;SDS011;40975;50.390;8.640;2022-10-16T16:10:14;1.52;;;1.30;;
54388;SDS011;40975;50.390;8.640;2022-10-16T16:12:39;2.15;;;1.70;;
54388;SDS011;40975;50.390;8.640;2022-10-16T16:15:05;3.38;;;1.73;;
54388;SDS011;40975;50.390;8.640;2022-10-16T16:17:32;2.03;;;1.40;;
54388;SDS011;40975;50.390;8.640;2022-10-16T16:19:58;2.40;;;2.20;;
54388;SDS011;40975;50.390;8.640;2022-10-16T16:22:24;2.33;;;2.03;;
54388;SDS011;40975;50.390;8.640;2022-10-16T16:24:49;2.75;;;2.22;;